Terminal Aerodrome Forecast
Issued by NWS

Home | Current Version | Previous Version | Text Only | Print | Product List | Glossary On
Versions: 1 2 3 4 5 6 7 8 9 10 11 12 13
000
FTUS43 KEAX 200500
TAFSTJ
TAF
KSTJ 200520Z 2006/2106 17009KT P6SM SCT250
     FM201200 18015KT P6SM BKN050
     FM202300 18010KT P6SM VCTS BKN040CB
     FM210100 18010KT P6SM -TSRA OVC030CB=

USA.gov is the U.S. government's official web portal to all federal, state and local government web resources and services.